Map

Track Data

SID SEASON NUMBER BASIN SUBBASIN NAME ISO_TIME NATURE LAT LON WMO_WIND WMO_PRES WMO_AGENCY TRACK_TYPE DIST2LAND LANDFALL IFLAG USA_AGENCY USA_ATCF_ID USA_LAT USA_LON USA_RECORD USA_STATUS USA_WIND USA_PRES USA_SSHS USA_R34_NE USA_R34_SE USA_R34_SW USA_R34_NW USA_R50_NE USA_R50_SE USA_R50_SW USA_R50_NW USA_R64_NE USA_R64_SE USA_R64_SW USA_R64_NW USA_POCI USA_ROCI USA_RMW USA_EYE TOKYO_LAT TOKYO_LON TOKYO_GRADE TOKYO_WIND TOKYO_PRES TOKYO_R50_DIR TOKYO_R50_LONG TOKYO_R50_SHORT TOKYO_R30_DIR TOKYO_R30_LONG TOKYO_R30_SHORT TOKYO_LAND CMA_LAT CMA_LON CMA_CAT CMA_WIND CMA_PRES HKO_LAT HKO_LON HKO_CAT HKO_WIND HKO_PRES NEWDELHI_LAT NEWDELHI_LON NEWDELHI_GRADE NEWDELHI_WIND NEWDELHI_PRES NEWDELHI_CI NEWDELHI_DP NEWDELHI_POCI REUNION_LAT REUNION_LON REUNION_TYPE REUNION_WIND REUNION_PRES REUNION_TNUM REUNION_CI REUNION_RMW REUNION_R34_NE REUNION_R34_SE REUNION_R34_SW REUNION_R34_NW REUNION_R50_NE REUNION_R50_SE REUNION_R50_SW REUNION_R50_NW REUNION_R64_NE REUNION_R64_SE REUNION_R64_SW REUNION_R64_NW BOM_LAT BOM_LON BOM_TYPE BOM_WIND BOM_PRES BOM_TNUM BOM_CI BOM_RMW BOM_R34_NE BOM_R34_SE BOM_R34_SW BOM_R34_NW BOM_R50_NE BOM_R50_SE BOM_R50_SW BOM_R50_NW BOM_R64_NE BOM_R64_SE BOM_R64_SW BOM_R64_NW BOM_ROCI BOM_POCI BOM_EYE BOM_POS_METHOD BOM_PRES_METHOD NADI_LAT NADI_LON NADI_CAT NADI_WIND NADI_PRES WELLINGTON_LAT WELLINGTON_LON WELLINGTON_WIND WELLINGTON_PRES DS824_LAT DS824_LON DS824_STAGE DS824_WIND DS824_PRES TD9636_LAT TD9636_LON TD9636_STAGE TD9636_WIND TD9636_PRES TD9635_LAT TD9635_LON TD9635_WIND TD9635_PRES TD9635_ROCI NEUMANN_LAT NEUMANN_LON NEUMANN_CLASS NEUMANN_WIND NEUMANN_PRES MLC_LAT MLC_LON MLC_CLASS MLC_WIND MLC_PRES USA_GUST BOM_GUST BOM_GUST_PER REUNION_GUST REUNION_GUST_PER USA_SEAHGT USA_SEARAD_NE USA_SEARAD_SE USA_SEARAD_SW USA_SEARAD_NW STORM_SPEED STORM_DIR
1877111S15064 1877 11 SI MM NOT_NAMED 1877-04-21 06:00:00 NR -15.1000 63.6000 reunion spur-split 838 831 _____O________ -1 -15.1000 63.6000 99 9.90000 3 262
1877111S15064 1877 11 SI MM NOT_NAMED 1877-04-21 09:00:00 NR -15.1202 63.4560 spur-split 831 815 _____P________ -1 -15.1202 63.4560 99 3 261
1877111S15064 1877 11 SI MM NOT_NAMED 1877-04-21 12:00:00 NR -15.1420 63.3091 spur-split 815 800 _____P________ -1 -15.1420 63.3091 99 3 261
1877111S15064 1877 11 SI MM NOT_NAMED 1877-04-21 15:00:00 NR -15.1671 63.1563 spur-split 800 784 _____P________ -1 -15.1671 63.1563 99 3 260
1877111S15064 1877 11 SI MM NOT_NAMED 1877-04-21 18:00:00 NR -15.1971 62.9946 spur-split 784 769 _____P________ -1 -15.1971 62.9946 99 3 258
1877111S15064 1877 11 SI MM NOT_NAMED 1877-04-21 21:00:00 NR -15.2338 62.8212 spur-split 769 746 _____P________ -1 -15.2338 62.8212 99 4 257
1877111S15064 1877 11 SI MM NOT_NAMED 1877-04-22 00:00:00 NR -15.2787 62.6329 spur-split 746 732 _____P________ -1 -15.2787 62.6329 99 4 255
1877111S15064 1877 11 SI MM NOT_NAMED 1877-04-22 03:00:00 NR -15.3336 62.4268 spur-split 732 709 _____P________ -1 -15.3336 62.4268 99 4 254
1877111S15064 1877 11 SI MM NOT_NAMED 1877-04-22 06:00:00 NR -15.4000 62.2000 reunion spur-split 709 687 _____O________ -1 -15.4000 62.2000 99 9.90000 5 252
1877111S15064 1877 11 SI MM NOT_NAMED 1877-04-22 09:00:00 NR -15.4791 61.9506 spur-split 687 657 _____P________ -1 -15.4791 61.9506 99 5 251
1877111S15064 1877 11 SI MM NOT_NAMED 1877-04-22 12:00:00 NR -15.5701 61.6817 spur-split 657 628 _____P________ -1 -15.5701 61.6817 99 6 250
1877111S15064 1877 11 SI MM NOT_NAMED 1877-04-22 15:00:00 NR -15.6718 61.3976 spur-split 628 600 _____P________ -1 -15.6718 61.3976 99 6 249
1877111S15064 1877 11 SI MM NOT_NAMED 1877-04-22 18:00:00 NR -15.7831 61.1026 spur-split 600 572 _____P________ -1 -15.7831 61.1026 99 6 248
1877111S15064 1877 11 SI MM NOT_NAMED 1877-04-22 21:00:00 NR -15.9026 60.8010 spur-split 572 545 _____P________ -1 -15.9026 60.8010 99 6 247
1877111S15064 1877 11 SI MM NOT_NAMED 1877-04-23 00:00:00 NR -16.0294 60.4971 spur-split 545 510 _____P________ -1 -16.0294 60.4971 99 6 246
1877111S15064 1877 11 SI MM NOT_NAMED 1877-04-23 03:00:00 NR -16.1622 60.1953 spur-split 510 484 _____P________ -1 -16.1622 60.1953 99 6 245
1877111S15064 1877 11 SI MM NOT_NAMED 1877-04-23 06:00:00 NR -16.3000 59.9000 reunion spur-split 484 460 _____O________ -1 -16.3000 59.9000 99 9.90000 6 244
1877111S15064 1877 11 SI MM NOT_NAMED 1877-04-23 09:00:00 NR -16.4359 59.6149 spur-split 460 426 _____P________ -1 -16.4359 59.6149 99 6 243
1877111S15064 1877 11 SI MM NOT_NAMED 1877-04-23 12:00:00 NR -16.5783 59.3323 spur-split 426 408 _____P________ -1 -16.5783 59.3323 99 6 242
1877111S15064 1877 11 SI MM NOT_NAMED 1877-04-23 15:00:00 NR -16.7259 59.0543 spur-split 408 376 _____P________ -1 -16.7259 59.0543 99 6 240
1877111S15064 1877 11 SI MM NOT_NAMED 1877-04-23 18:00:00 NR -16.8774 58.7827 spur-split 376 356 _____P________ -1 -16.8774 58.7827 99 6 239
1877111S15064 1877 11 SI MM NOT_NAMED 1877-04-23 21:00:00 NR -17.0318 58.5195 spur-split 356 330 _____P________ -1 -17.0318 58.5195 99 6 238
1877111S15064 1877 11 SI MM NOT_NAMED 1877-04-24 00:00:00 NR -17.1878 58.2667 spur-split 330 314 _____P________ -1 -17.1878 58.2667 99 6 236
1877111S15064 1877 11 SI MM NOT_NAMED 1877-04-24 03:00:00 NR -17.3443 58.0262 spur-split 314 291 _____P________ -1 -17.3443 58.0262 99 5 235
1877111S15064 1877 11 SI MM NOT_NAMED 1877-04-24 06:00:00 NR -17.5000 57.8000 reunion spur-split 291 279 _____O________ -1 -17.5000 57.8000 99 9.90000 5 233
1877111S15064 1877 11 SI MM NOT_NAMED 1877-04-24 09:00:00 NR -17.6541 57.5895 spur-split 268 257 _____P________ -1 -17.6541 57.5895 99 5 232
1877111S15064 1877 11 SI MM NOT_NAMED 1877-04-24 12:00:00 NR -17.8065 57.3933 spur-split 257 247 _____P________ -1 -17.8065 57.3933 99 5 230
1877111S15064 1877 11 SI MM NOT_NAMED 1877-04-24 15:00:00 NR -17.9576 57.2092 spur-split 237 227 _____P________ -1 -17.9576 57.2092 99 5 229
1877111S15064 1877 11 SI MM NOT_NAMED 1877-04-24 18:00:00 NR -18.1075 57.0354 spur-split 229 218 _____P________ -1 -18.1075 57.0354 99 4 227
1877111S15064 1877 11 SI MM NOT_NAMED 1877-04-24 21:00:00 NR -18.2565 56.8696 spur-split 210 203 _____P________ -1 -18.2565 56.8696 99 4 226
1877111S15064 1877 11 SI MM NOT_NAMED 1877-04-25 00:00:00 NR -18.4048 56.7099 spur-split 207 197 _____P________ -1 -18.4048 56.7099 99 4 225
1877111S15064 1877 11 SI MM NOT_NAMED 1877-04-25 03:00:00 NR -18.5526 56.5540 spur-split 192 188 _____P________ -1 -18.5526 56.5540 99 4 225
1877111S15064 1877 11 SI MM NOT_NAMED 1877-04-25 06:00:00 NR -18.7000 56.4000 reunion spur-split 194 _____O________ -1 -18.7000 56.4000 99 9.90000 4 225

About IBTrACS Database

This database is a web-friendly format of International Best Track Archive for Climate Stewardship (IBTrACS), a global best track data archive curated by NOAA dating back to 1842.

Updated: 2021-10-21